Time;durP1;ratioP1;P1;durP2;ratioP2;P2;SDS_P1;SDS_P2;PMS_P1;PMS_P2;Temp;Humidity;BMP_temperature;BMP_pressure;BME280_temperature;BME280_humidity;BME280_pressure;Samples;Min_cycle;Max_cycle;Signal;HPM_P1;HPM_P2
2022/03/24 00:00:28;;;;;;;39.88;27.17;;;7.10;82.50;;;;;;5011210;28;20046;-40
2022/03/24 00:02:55;;;;;;;45.58;29.90;;;7.10;82.80;;;;;;5011355;28;20045;-41
2022/03/24 00:05:22;;;;;;;42.38;26.95;;;7.00;83.10;;;;;;5010999;28;20049;-40
2022/03/24 00:07:49;;;;;;;38.22;26.17;;;7.00;83.30;;;;;;5012082;28;20397;-40
2022/03/24 00:10:16;;;;;;;48.78;30.95;;;7.00;83.60;;;;;;5011314;28;20059;-41
2022/03/24 00:12:44;;;;;;;42.65;26.20;;;6.90;84.30;;;;;;5010344;28;20050;-40
2022/03/24 00:15:11;;;;;;;45.92;28.40;;;6.90;84.50;;;;;;5010916;28;20046;-41
2022/03/24 00:17:38;;;;;;;39.33;27.30;;;6.90;84.90;;;;;;5010181;28;20075;-40
2022/03/24 00:20:06;;;;;;;43.60;27.90;;;6.80;85.20;;;;;;5009504;28;20050;-40
2022/03/24 00:22:32;;;;;;;44.53;28.55;;;6.80;85.80;;;;;;5010777;28;20478;-41
2022/03/24 00:24:59;;;;;;;37.90;26.00;;;6.70;86.20;;;;;;5009809;28;20056;-41
2022/03/24 00:27:27;;;;;;;38.25;26.92;;;6.70;86.20;;;;;;5003864;28;20054;-40
2022/03/24 00:29:55;;;;;;;55.25;31.50;;;6.70;86.20;;;;;;5011485;28;20100;-41
2022/03/24 00:32:21;;;;;;;41.50;27.70;;;6.60;88.00;;;;;;5010833;28;20046;-40
2022/03/24 00:34:48;;;;;;;40.17;26.77;;;6.60;88.10;;;;;;5011248;28;20469;-40
2022/03/24 00:37:15;;;;;;;44.90;29.48;;;6.60;88.00;;;;;;5011745;28;20049;-41
2022/03/24 00:39:42;;;;;;;47.97;29.17;;;6.50;88.10;;;;;;5011262;28;20047;-40
2022/03/24 00:42:11;;;;;;;55.78;34.92;;;6.50;88.50;;;;;;5012111;28;20397;-40
2022/03/24 00:44:38;;;;;;;57.58;35.08;;;6.40;90.00;;;;;;4999210;28;20041;-40
2022/03/24 00:47:07;;;;;;;55.97;34.83;;;6.40;90.60;;;;;;5011679;28;20046;-40
2022/03/24 00:49:34;;;;;;;52.20;30.60;;;6.30;91.00;;;;;;5011777;28;20053;-40
2022/03/24 00:52:02;;;;;;;46.20;30.60;;;6.30;91.00;;;;;;5010224;28;20117;-41
2022/03/24 00:54:29;;;;;;;47.92;30.73;;;6.30;90.90;;;;;;5012321;28;20366;-40
2022/03/24 00:56:55;;;;;;;44.72;29.50;;;6.30;90.70;;;;;;4999303;28;20034;-40
2022/03/24 00:59:22;;;;;;;46.28;28.23;;;6.20;90.60;;;;;;5013964;28;20092;-40
2022/03/24 01:01:49;;;;;;;47.40;29.65;;;6.20;90.50;;;;;;5014758;28;20056;-40
2022/03/24 01:04:17;;;;;;;54.80;32.25;;;6.20;90.50;;;;;;5014084;28;20410;-40
2022/03/24 01:06:44;;;;;;;47.58;29.63;;;6.20;90.90;;;;;;5012823;28;20053;-40
2022/03/24 01:09:11;;;;;;;44.17;29.20;;;6.10;90.90;;;;;;5013136;28;20121;-40
2022/03/24 01:11:37;;;;;;;46.08;29.60;;;6.10;90.90;;;;;;5013498;28;20125;-40
2022/03/24 01:14:05;;;;;;;44.55;28.58;;;6.10;91.00;;;;;;5012074;28;20405;-41
2022/03/24 01:16:32;;;;;;;42.58;28.02;;;6.00;90.90;;;;;;5013937;28;20045;-41
2022/03/24 01:18:58;;;;;;;43.05;27.92;;;6.00;90.80;;;;;;5013916;28;20136;-41
2022/03/24 01:21:26;;;;;;;48.95;29.15;;;6.00;90.70;;;;;;5014182;28;20056;-41
2022/03/24 01:23:54;;;;;;;51.42;30.63;;;6.00;90.90;;;;;;5012276;28;20054;-40
2022/03/24 01:26:22;;;;;;;45.47;30.48;;;5.90;90.80;;;;;;5014334;28;20133;-39
2022/03/24 01:28:50;;;;;;;49.33;31.77;;;5.90;91.20;;;;;;5013612;28;20100;-38
2022/03/24 01:31:17;;;;;;;48.38;30.00;;;5.80;91.70;;;;;;5014308;28;20054;-39
2022/03/24 01:33:43;;;;;;;52.40;32.75;;;5.80;92.10;;;;;;5014533;28;20116;-39
2022/03/24 01:36:11;;;;;;;47.15;29.25;;;5.80;92.30;;;;;;5014094;28;20052;-41
2022/03/24 01:38:39;;;;;;;55.88;33.70;;;5.70;92.30;;;;;;5013554;28;20498;-41
2022/03/24 01:41:07;;;;;;;43.22;29.60;;;5.70;92.60;;;;;;5014169;28;20046;-41
2022/03/24 01:43:34;;;;;;;48.17;31.20;;;5.60;92.70;;;;;;5013567;28;20041;-40
2022/03/24 01:46:01;;;;;;;47.92;30.55;;;5.60;92.70;;;;;;5014359;28;20450;-40
2022/03/24 01:48:27;;;;;;;50.17;31.02;;;5.60;92.60;;;;;;5014070;28;20046;-40
2022/03/24 01:50:54;;;;;;;50.47;30.30;;;5.50;92.30;;;;;;5014513;28;20041;-39
2022/03/24 01:53:21;;;;;;;51.67;31.90;;;5.50;92.40;;;;;;5012750;28;20426;-39
2022/03/24 01:55:50;;;;;;;46.92;29.27;;;5.50;92.50;;;;;;5014301;28;20462;-41
2022/03/24 01:58:17;;;;;;;55.40;35.38;;;5.50;92.50;;;;;;5029410;28;20049;-40
2022/03/24 02:00:45;;;;;;;48.03;31.80;;;5.50;92.60;;;;;;5013227;28;20397;-40
2022/03/24 02:03:12;;;;;;;49.35;33.47;;;5.50;92.70;;;;;;5012538;28;20390;-39
2022/03/24 02:05:39;;;;;;;49.72;31.88;;;5.40;92.70;;;;;;5013092;28;20076;-40
2022/03/24 02:08:07;;;;;;;51.88;32.60;;;5.40;92.60;;;;;;5012848;28;20068;-40
2022/03/24 02:10:35;;;;;;;49.63;31.02;;;5.40;92.50;;;;;;5014301;28;20038;-40
2022/03/24 02:13:04;;;;;;;53.78;34.38;;;5.30;92.60;;;;;;5013566;28;20133;-40
2022/03/24 02:15:32;;;;;;;52.60;32.65;;;5.30;92.50;;;;;;5013612;28;20074;-41
2022/03/24 02:17:58;;;;;;;62.40;37.45;;;5.30;92.90;;;;;;5013681;28;20050;-40
2022/03/24 02:20:28;;;;;;;58.10;35.42;;;5.20;93.30;;;;;;5013938;28;20046;-40
2022/03/24 02:22:56;;;;;;;57.95;35.45;;;5.20;93.70;;;;;;5012560;28;20100;-40
2022/03/24 02:25:25;;;;;;;54.50;36.13;;;5.20;94.00;;;;;;5010390;28;20393;-41
2022/03/24 02:27:55;;;;;;;54.60;33.75;;;5.10;94.10;;;;;;5003268;28;20038;-41
2022/03/24 02:30:24;;;;;;;46.38;31.33;;;5.10;94.10;;;;;;5013455;28;20042;-40
2022/03/24 02:32:51;;;;;;;51.97;33.22;;;5.10;94.00;;;;;;5008754;28;20046;-40
2022/03/24 02:35:18;;;;;;;49.75;31.13;;;5.00;93.80;;;;;;5012007;28;20129;-40
2022/03/24 02:37:45;;;;;;;48.17;32.75;;;5.00;93.70;;;;;;5012066;28;20048;-40
2022/03/24 02:40:14;;;;;;;56.28;33.17;;;5.00;93.60;;;;;;5013886;28;20087;-40
2022/03/24 02:42:41;;;;;;;52.47;32.40;;;5.00;93.60;;;;;;5010374;28;20050;-40
2022/03/24 02:45:10;;;;;;;51.53;31.52;;;5.00;93.50;;;;;;5011460;28;20389;-40
2022/03/24 02:47:36;;;;;;;52.72;31.73;;;5.00;93.30;;;;;;5012211;28;20073;-40
2022/03/24 02:50:04;;;;;;;49.22;31.48;;;5.00;93.30;;;;;;5013482;28;20050;-39
2022/03/24 02:52:30;;;;;;;50.42;32.17;;;4.90;93.20;;;;;;5013122;28;20045;-40
2022/03/24 02:54:57;;;;;;;60.75;38.17;;;4.90;93.20;;;;;;5012048;28;20053;-41
2022/03/24 02:57:25;;;;;;;56.65;35.53;;;4.90;93.70;;;;;;5011426;28;20037;-40
2022/03/24 02:59:52;;;;;;;55.85;34.33;;;4.90;94.00;;;;;;5012870;28;20122;-40
2022/03/24 03:02:18;;;;;;;48.85;31.65;;;4.80;94.30;;;;;;5012552;28;20046;-40
2022/03/24 03:04:49;;;;;;;51.63;31.35;;;4.80;94.30;;;;;;5013259;28;20046;-40
2022/03/24 03:07:16;;;;;;;51.60;32.38;;;4.80;94.20;;;;;;5012404;28;20038;-40
2022/03/24 03:09:43;;;;;;;52.92;32.83;;;4.70;94.10;;;;;;5013014;28;20050;-40
2022/03/24 03:12:10;;;;;;;55.20;34.70;;;4.70;94.10;;;;;;5012293;28;20081;-40
2022/03/24 03:14:38;;;;;;;49.53;32.00;;;4.70;94.00;;;;;;5011796;28;20049;-41
2022/03/24 03:17:06;;;;;;;48.90;29.85;;;4.70;94.00;;;;;;5011840;28;20494;-39
2022/03/24 03:19:32;;;;;;;52.38;33.08;;;4.70;93.80;;;;;;5011908;28;20413;-40
2022/03/24 03:21:59;;;;;;;49.47;32.65;;;4.70;93.70;;;;;;5012127;28;20053;-41
2022/03/24 03:24:29;;;;;;;53.67;34.63;;;4.70;93.70;;;;;;5012436;28;20435;-40
2022/03/24 03:26:55;;;;;;;58.30;31.90;;;4.70;93.80;;;;;;5012708;28;20077;-39
2022/03/24 03:29:22;;;;;;;50.42;34.40;;;4.60;93.70;;;;;;5012704;28;20367;-40
2022/03/24 03:31:51;;;;;;;58.22;36.22;;;4.60;93.80;;;;;;5011154;28;20046;-40
2022/03/24 03:34:17;;;;;;;65.93;40.15;;;4.50;94.20;;;;;;5001329;28;20155;-40
2022/03/24 03:36:44;;;;;;;63.55;40.03;;;4.50;95.00;;;;;;5012511;28;20397;-41
2022/03/24 03:39:11;;;;;;;66.35;41.13;;;4.50;95.40;;;;;;5012667;28;20077;-40
2022/03/24 03:41:39;;;;;;;54.25;36.05;;;4.40;95.80;;;;;;5012002;28;20478;-40
2022/03/24 03:44:06;;;;;;;53.38;33.83;;;4.40;95.90;;;;;;5012045;28;20042;-40
2022/03/24 03:46:33;;;;;;;56.80;35.08;;;4.40;95.80;;;;;;5012654;28;20040;-40
2022/03/24 03:49:01;;;;;;;57.30;36.05;;;4.40;95.80;;;;;;5011358;28;20081;-40
2022/03/24 03:51:29;;;;;;;52.70;33.35;;;4.30;96.00;;;;;;5011470;28;20049;-40
2022/03/24 03:53:56;;;;;;;61.83;36.72;;;4.30;96.20;;;;;;5010856;28;20365;-40
2022/03/24 03:56:23;;;;;;;68.60;41.58;;;4.30;96.20;;;;;;5012226;28;20045;-40
2022/03/24 03:58:49;;;;;;;67.50;41.85;;;4.20;97.00;;;;;;5012055;28;20041;-40
2022/03/24 04:01:22;;;;;;;54.25;33.28;;;4.20;97.10;;;;;;5011508;28;20052;-40
2022/03/24 04:03:49;;;;;;;58.22;34.20;;;4.20;97.20;;;;;;5012358;28;20052;-40
2022/03/24 04:06:17;;;;;;;53.10;34.88;;;4.10;96.90;;;;;;5012440;28;20056;-40
2022/03/24 04:08:44;;;;;;;56.63;35.50;;;4.20;96.70;;;;;;5011394;28;20046;-40
2022/03/24 04:11:12;;;;;;;58.10;35.63;;;4.10;96.50;;;;;;5012064;28;20050;-40
2022/03/24 04:13:40;;;;;;;72.43;41.17;;;4.10;97.10;;;;;;5011783;28;20061;-40
2022/03/24 04:16:11;;;;;;;50.03;33.28;;;4.10;97.30;;;;;;5011500;28;20096;-40
2022/03/24 04:18:38;;;;;;;55.40;36.03;;;4.10;97.20;;;;;;5012362;28;20057;-40
2022/03/24 04:21:05;;;;;;;61.45;38.75;;;4.10;96.90;;;;;;5010602;28;20137;-41
2022/03/24 04:23:33;;;;;;;69.10;38.20;;;4.10;96.90;;;;;;5010883;28;20049;-40
2022/03/24 04:25:59;;;;;;;59.15;34.05;;;4.00;97.00;;;;;;5011592;28;20486;-40
2022/03/24 04:28:26;;;;;;;56.50;35.67;;;4.00;97.00;;;;;;5013529;28;20481;-40
2022/03/24 04:30:53;;;;;;;55.97;34.63;;;4.00;96.80;;;;;;5015860;28;20077;-41
2022/03/24 04:33:19;;;;;;;55.97;35.42;;;4.00;96.70;;;;;;5015884;28;20477;-41
2022/03/24 04:35:46;;;;;;;54.17;34.25;;;4.00;96.60;;;;;;5014309;28;20056;-41
2022/03/24 04:38:14;;;;;;;55.45;34.92;;;4.00;96.70;;;;;;5011543;28;20125;-40
2022/03/24 04:40:42;;;;;;;55.85;35.63;;;3.90;96.60;;;;;;5006558;28;20050;-40
2022/03/24 04:43:09;;;;;;;58.55;37.30;;;3.90;96.50;;;;;;5028168;28;20050;-40
2022/03/24 04:45:36;;;;;;;61.83;38.47;;;3.90;96.70;;;;;;5014351;28;20091;-41
2022/03/24 04:48:03;;;;;;;54.97;34.42;;;3.90;97.20;;;;;;5016181;28;20060;-41
2022/03/24 04:50:30;;;;;;;53.10;34.17;;;3.90;97.20;;;;;;5015577;28;20125;-40
2022/03/24 04:52:57;;;;;;;52.70;33.75;;;3.80;97.00;;;;;;5014148;28;20044;-40
2022/03/24 04:55:23;;;;;;;54.33;33.70;;;3.80;96.80;;;;;;5014444;28;20367;-40
2022/03/24 04:57:51;;;;;;;52.88;32.60;;;3.80;96.60;;;;;;5014686;28;20044;-40
2022/03/24 05:00:18;;;;;;;59.83;34.35;;;3.80;96.50;;;;;;5014258;28;20054;-39
2022/03/24 05:02:45;;;;;;;54.47;34.00;;;3.80;96.40;;;;;;5014703;28;20446;-40
2022/03/24 05:05:12;;;;;;;59.90;34.67;;;3.80;96.30;;;;;;5015562;28;20492;-39
2022/03/24 05:07:39;;;;;;;52.15;32.00;;;3.80;96.40;;;;;;5015001;28;20046;-40
2022/03/24 05:10:07;;;;;;;48.42;30.88;;;3.80;96.30;;;;;;5013602;28;20077;-41
2022/03/24 05:12:34;;;;;;;50.38;32.45;;;3.80;96.20;;;;;;5014935;28;20052;-40
2022/03/24 05:15:02;;;;;;;54.83;34.03;;;3.80;96.00;;;;;;5015792;28;20042;-39
2022/03/24 05:17:28;;;;;;;53.72;33.20;;;3.80;95.90;;;;;;5013776;28;20406;-40
2022/03/24 05:19:56;;;;;;;57.85;32.03;;;3.80;96.00;;;;;;5015412;28;20046;-40
2022/03/24 05:22:23;;;;;;;52.40;32.28;;;3.70;96.00;;;;;;5013554;28;20052;-40
2022/03/24 05:24:49;;;;;;;51.33;31.58;;;3.70;95.90;;;;;;5012544;28;20046;-40
2022/03/24 05:27:16;;;;;;;49.58;31.65;;;3.80;95.90;;;;;;5010179;28;20129;-41
2022/03/24 05:29:43;;;;;;;51.05;31.17;;;3.70;95.90;;;;;;5008859;28;20041;-41
2022/03/24 05:32:11;;;;;;;49.97;32.38;;;3.70;95.80;;;;;;5011827;28;20046;-40
2022/03/24 05:34:38;;;;;;;53.15;32.80;;;3.70;95.80;;;;;;5013643;28;20046;-40
2022/03/24 05:37:05;;;;;;;52.05;32.78;;;3.70;95.70;;;;;;5006188;28;20041;-40
2022/03/24 05:39:32;;;;;;;50.05;32.60;;;3.70;95.70;;;;;;5011577;28;20048;-41
2022/03/24 05:41:58;;;;;;;67.07;40.25;;;3.70;95.60;;;;;;4998129;28;20556;-40
2022/03/24 05:44:25;;;;;;;66.13;40.65;;;3.70;96.20;;;;;;5011610;28;20068;-40
2022/03/24 05:46:52;;;;;;;64.35;36.33;;;3.60;96.80;;;;;;5012304;28;20045;-40
2022/03/24 05:49:21;;;;;;;62.55;40.22;;;3.60;97.40;;;;;;5029373;28;20477;-41
2022/03/24 05:51:48;;;;;;;58.85;35.88;;;3.60;97.80;;;;;;5013959;28;20045;-40
2022/03/24 05:54:16;;;;;;;55.80;34.90;;;3.50;98.20;;;;;;5014185;28;20085;-40
2022/03/24 05:56:43;;;;;;;57.05;34.53;;;3.50;98.10;;;;;;5007072;28;20088;-40
2022/03/24 05:59:10;;;;;;;51.83;33.95;;;3.50;97.90;;;;;;5008429;28;20060;-40
2022/03/24 06:01:36;;;;;;;54.60;34.13;;;3.50;97.70;;;;;;5007859;28;20385;-40
2022/03/24 06:04:03;;;;;;;54.78;34.95;;;3.50;97.50;;;;;;5012380;28;20524;-40
2022/03/24 06:06:32;;;;;;;57.95;36.72;;;3.60;97.40;;;;;;5010469;28;20046;-40
2022/03/24 06:08:58;;;;;;;55.88;35.55;;;3.60;97.30;;;;;;5013667;28;20092;-40
2022/03/24 06:11:25;;;;;;;67.43;40.95;;;3.60;97.20;;;;;;5014243;28;20049;-41
2022/03/24 06:13:53;;;;;;;57.60;36.25;;;3.70;97.30;;;;;;5013461;28;20045;-40
2022/03/24 06:16:21;;;;;;;57.53;35.88;;;3.70;97.30;;;;;;5013102;28;20049;-41
2022/03/24 06:18:48;;;;;;;64.00;36.75;;;3.60;97.60;;;;;;5014554;28;20119;-40
2022/03/24 06:21:15;;;;;;;59.70;36.63;;;3.70;97.20;;;;;;4999826;28;20081;-41
2022/03/24 06:23:43;;;;;;;61.60;37.65;;;3.80;97.10;;;;;;5007902;28;20062;-39
2022/03/24 06:26:10;;;;;;;73.03;42.97;;;3.80;97.00;;;;;;5013388;28;20540;-40
2022/03/24 06:28:36;;;;;;;80.10;48.53;;;3.90;97.40;;;;;;5013271;28;20056;-40
2022/03/24 06:31:03;;;;;;;71.43;44.03;;;3.90;98.10;;;;;;5013416;28;20048;-40
2022/03/24 06:33:30;;;;;;;82.03;45.47;;;4.00;98.40;;;;;;4999299;28;20482;-40
2022/03/24 06:35:57;;;;;;;76.78;45.67;;;4.00;98.80;;;;;;4994344;28;20064;-40
2022/03/24 06:38:23;;;;;;;83.03;50.67;;;4.10;99.10;;;;;;4994597;28;20043;-40
2022/03/24 06:40:51;;;;;;;86.28;53.63;;;4.20;99.60;;;;;;4994539;28;20054;-40
2022/03/24 06:43:18;;;;;;;84.82;51.55;;;4.30;99.80;;;;;;4994492;28;20163;-40
2022/03/24 06:45:45;;;;;;;88.82;53.33;;;4.30;99.90;;;;;;4997129;28;20405;-40
2022/03/24 06:48:13;;;;;;;89.78;51.65;;;4.40;99.90;;;;;;5012947;28;20053;-40
2022/03/24 06:50:40;;;;;;;93.63;57.97;;;4.50;99.90;;;;;;5013148;28;20046;-41
2022/03/24 06:53:07;;;;;;;89.40;53.90;;;4.60;99.90;;;;;;5014022;28;20053;-41
2022/03/24 06:55:34;;;;;;;104.70;62.28;;;4.70;99.90;;;;;;5013825;28;20052;-40
2022/03/24 06:58:02;;;;;;;103.22;59.40;;;4.80;99.90;;;;;;5013584;28;20489;-41
2022/03/24 07:00:29;;;;;;;98.38;58.92;;;5.00;99.90;;;;;;5012732;28;20042;-40
2022/03/24 07:02:57;;;;;;;88.43;56.10;;;5.10;99.90;;;;;;5012584;28;20046;-41
2022/03/24 07:05:24;;;;;;;84.30;52.72;;;5.20;99.90;;;;;;5012937;28;20381;-41
2022/03/24 07:07:51;;;;;;;92.35;58.53;;;5.30;99.90;;;;;;5013670;28;20048;-40
2022/03/24 07:10:19;;;;;;;95.55;59.78;;;5.50;99.90;;;;;;5013502;28;20478;-40
2022/03/24 07:12:47;;;;;;;96.25;60.03;;;5.60;99.90;;;;;;5013498;28;20403;-40
2022/03/24 07:15:15;;;;;;;98.63;60.25;;;5.80;99.90;;;;;;5012560;28;20045;-41
2022/03/24 07:17:42;;;;;;;100.53;59.28;;;5.90;99.90;;;;;;5013317;28;20069;-40
2022/03/24 07:20:10;;;;;;;99.78;61.83;;;6.10;99.90;;;;;;4998947;28;20042;-40
2022/03/24 07:22:37;;;;;;;105.40;61.75;;;6.30;99.90;;;;;;4992797;28;20050;-41
2022/03/24 07:25:05;;;;;;;106.25;61.92;;;6.40;99.90;;;;;;4994017;28;20050;-40
2022/03/24 07:27:31;;;;;;;95.30;58.63;;;6.60;99.90;;;;;;4992685;28;20073;-42
2022/03/24 07:29:58;;;;;;;92.13;58.53;;;6.80;99.90;;;;;;4992664;28;20053;-40
2022/03/24 07:32:26;;;;;;;91.28;55.80;;;6.90;99.90;;;;;;4998587;28;20041;-41
2022/03/24 07:34:53;;;;;;;98.47;56.90;;;7.10;99.90;;;;;;5011959;28;20064;-41
2022/03/24 07:37:19;;;;;;;86.32;52.17;;;7.30;99.90;;;;;;5012232;28;20050;-41
2022/03/24 07:39:46;;;;;;;92.75;53.55;;;7.40;99.90;;;;;;5012367;28;20056;-42
2022/03/24 07:42:14;;;;;;;86.78;52.72;;;7.60;99.90;;;;;;5013240;28;20048;-42
2022/03/24 07:44:40;;;;;;;86.25;50.95;;;7.80;99.40;;;;;;5012944;28;20486;-41
2022/03/24 07:47:08;;;;;;;75.03;49.03;;;8.00;99.20;;;;;;5013134;28;20056;-42
2022/03/24 07:49:36;;;;;;;79.68;49.28;;;8.10;99.00;;;;;;5004999;28;20046;-42
2022/03/24 07:52:03;;;;;;;81.22;50.50;;;8.30;98.60;;;;;;4993499;28;20056;-42
2022/03/24 07:54:41;;;;;;;78.25;47.13;;;8.50;98.50;;;;;;4993441;28;20053;-42
2022/03/24 07:57:08;;;;;;;70.50;43.42;;;8.70;97.90;;;;;;4992254;28;20056;-42
2022/03/24 07:59:35;;;;;;;78.10;43.80;;;8.90;97.50;;;;;;4993429;28;20050;-43
2022/03/24 08:02:02;;;;;;;72.97;45.20;;;9.00;97.10;;;;;;4993176;28;20042;-41
2022/03/24 08:04:28;;;;;;;72.03;41.55;;;9.20;96.90;;;;;;4995198;28;20097;-41
2022/03/24 08:06:56;;;;;;;73.20;44.58;;;9.40;96.30;;;;;;4996169;28;20128;-41
2022/03/24 08:09:23;;;;;;;67.13;42.35;;;9.60;95.90;;;;;;4996573;28;20060;-43
2022/03/24 08:11:50;;;;;;;76.90;44.08;;;9.80;96.10;;;;;;4997244;28;20050;-42
2022/03/24 08:14:16;;;;;;;69.78;41.47;;;10.00;95.60;;;;;;4996052;28;20050;-41
2022/03/24 08:16:45;;;;;;;66.95;41.88;;;10.10;95.10;;;;;;4996964;28;20053;-41
2022/03/24 08:19:14;;;;;;;68.03;43.05;;;10.30;94.60;;;;;;5005388;28;20111;-41
2022/03/24 08:21:41;;;;;;;69.25;41.63;;;10.40;94.60;;;;;;5016728;28;20088;-42
2022/03/24 08:24:10;;;;;;;71.03;41.72;;;10.70;94.00;;;;;;5015546;28;20052;-42
2022/03/24 08:26:37;;;;;;;66.18;40.80;;;10.80;93.50;;;;;;5015381;28;20501;-41
2022/03/24 08:29:04;;;;;;;63.60;40.28;;;11.00;93.30;;;;;;5014919;28;20438;-41
2022/03/24 08:31:31;;;;;;;63.50;39.38;;;11.20;92.90;;;;;;5016239;28;20046;-40
2022/03/24 08:33:58;;;;;;;64.05;40.22;;;11.40;92.30;;;;;;5015131;28;20437;-41
2022/03/24 08:36:26;;;;;;;71.15;42.20;;;11.60;91.50;;;;;;5015317;28;20056;-41
2022/03/24 08:38:52;;;;;;;66.80;40.22;;;11.70;91.30;;;;;;5015073;28;20056;-42
2022/03/24 08:41:20;;;;;;;66.43;41.05;;;11.90;91.00;;;;;;5015290;28;20046;-43
2022/03/24 08:43:47;;;;;;;68.22;40.20;;;12.10;90.70;;;;;;5015012;28;20045;-43
2022/03/24 08:46:14;;;;;;;65.97;40.45;;;12.30;90.70;;;;;;5014705;28;20057;-42
2022/03/24 08:48:41;;;;;;;66.82;40.35;;;12.40;90.10;;;;;;5014413;28;20041;-41
2022/03/24 08:51:08;;;;;;;59.35;38.50;;;12.60;89.60;;;;;;5016128;28;20054;-42
2022/03/24 08:53:34;;;;;;;64.03;40.83;;;12.70;89.00;;;;;;5015036;28;20046;-41
2022/03/24 08:56:01;;;;;;;62.70;38.78;;;12.90;89.00;;;;;;5015135;28;20064;-45
2022/03/24 08:58:29;;;;;;;71.55;41.80;;;13.10;88.10;;;;;;5015765;28;20185;-41
2022/03/24 09:00:56;;;;;;;63.25;41.65;;;13.30;87.80;;;;;;5015690;28;20049;-43
2022/03/24 09:03:23;;;;;;;65.43;40.85;;;13.40;87.20;;;;;;5014968;28;20140;-42
2022/03/24 09:05:49;;;;;;;64.53;42.60;;;13.60;86.60;;;;;;5014984;28;20524;-42
2022/03/24 09:08:16;;;;;;;64.38;41.08;;;13.70;86.30;;;;;;5014472;28;20056;-41
2022/03/24 09:10:43;;;;;;;62.88;42.17;;;13.90;86.00;;;;;;5014726;28;20092;-41
2022/03/24 09:13:10;;;;;;;58.15;39.25;;;14.00;85.50;;;;;;5016063;28;20056;-42
2022/03/24 09:15:38;;;;;;;60.70;39.17;;;14.20;85.20;;;;;;5015078;28;20132;-45
2022/03/24 09:18:05;;;;;;;58.92;38.65;;;14.40;85.00;;;;;;5013979;28;20054;-45
2022/03/24 09:20:32;;;;;;;56.53;36.28;;;14.60;84.00;;;;;;4995983;28;20056;-43
2022/03/24 09:22:59;;;;;;;65.90;38.25;;;14.70;81.00;;;;;;4996013;28;20046;-41
2022/03/24 09:25:25;;;;;;;56.28;37.60;;;14.80;79.40;;;;;;4995904;28;20104;-43
2022/03/24 09:27:52;;;;;;;58.25;35.65;;;14.90;78.70;;;;;;4995806;28;20089;-44
2022/03/24 09:30:20;;;;;;;59.42;35.38;;;15.00;77.50;;;;;;4994548;28;20052;-43
2022/03/24 09:32:48;;;;;;;58.92;35.60;;;15.10;76.10;;;;;;5003837;28;20046;-44
2022/03/24 09:35:15;;;;;;;55.03;36.20;;;15.20;76.40;;;;;;5015502;28;20050;-43
2022/03/24 09:37:42;;;;;;;60.65;36.55;;;15.40;75.70;;;;;;5015359;28;20441;-42
2022/03/24 09:40:09;;;;;;;55.63;35.38;;;15.50;75.60;;;;;;5013884;28;20489;-42
2022/03/24 09:42:36;;;;;;;58.97;35.25;;;15.60;75.00;;;;;;5015143;28;20038;-44
2022/03/24 09:45:03;;;;;;;62.58;35.20;;;15.80;73.30;;;;;;5014979;28;20485;-42
2022/03/24 09:47:30;;;;;;;57.10;36.05;;;15.80;72.30;;;;;;5015315;28;20508;-44
2022/03/24 09:49:59;;;;;;;62.03;36.95;;;15.80;71.90;;;;;;5014411;28;20130;-42
2022/03/24 09:52:26;;;;;;;55.20;35.15;;;16.00;71.90;;;;;;5015144;28;20053;-42
2022/03/24 09:54:53;;;;;;;72.00;37.70;;;16.10;71.60;;;;;;5014998;28;20096;-42
2022/03/24 09:57:20;;;;;;;53.90;35.58;;;16.20;71.40;;;;;;5014734;28;20050;-42
2022/03/24 09:59:46;;;;;;;63.67;36.47;;;16.30;71.40;;;;;;5013661;28;20132;-42
2022/03/24 10:02:13;;;;;;;56.88;37.00;;;16.50;71.10;;;;;;5014840;28;20056;-45
2022/03/24 10:04:48;;;;;;;54.90;35.35;;;16.70;70.90;;;;;;5013693;28;20466;-42
2022/03/24 10:07:16;;;;;;;56.28;36.10;;;16.80;69.50;;;;;;5014867;28;20054;-41
2022/03/24 10:09:44;;;;;;;55.60;34.83;;;16.90;68.60;;;;;;5014693;28;20046;-43
2022/03/24 10:12:18;;;;;;;55.67;33.03;;;17.10;68.80;;;;;;5014488;28;20054;-43
2022/03/24 10:14:45;;;;;;;61.38;36.38;;;17.20;66.70;;;;;;5014724;28;20389;-41
2022/03/24 10:17:12;;;;;;;59.45;35.95;;;17.20;65.60;;;;;;5014512;28;20037;-41
2022/03/24 10:19:39;;;;;;;57.17;36.72;;;17.30;65.20;;;;;;5008820;28;20045;-42
2022/03/24 10:22:09;;;;;;;59.03;34.67;;;17.40;65.30;;;;;;5014530;28;20121;-41
2022/03/24 10:24:41;;;;;;;58.10;34.05;;;17.60;64.20;;;;;;5014200;28;20052;-42
2022/03/24 10:27:08;;;;;;;51.42;32.03;;;17.70;62.60;;;;;;5009971;28;20096;-42
2022/03/24 10:29:35;;;;;;;58.15;34.15;;;17.70;62.50;;;;;;4993863;28;20042;-42
2022/03/24 10:32:03;;;;;;;61.13;33.80;;;17.80;61.30;;;;;;4996609;28;20554;-41
2022/03/24 10:34:31;;;;;;;41.75;28.67;;;18.00;61.30;;;;;;5013152;28;20377;-42
2022/03/24 10:36:58;;;;;;;50.90;30.90;;;18.10;62.10;;;;;;5013170;28;20466;-42
2022/03/24 10:39:25;;;;;;;59.40;30.02;;;18.30;60.10;;;;;;5013864;28;20045;-47
2022/03/24 10:41:53;;;;;;;43.20;28.75;;;18.40;59.70;;;;;;5013787;28;20085;-42
2022/03/24 10:44:21;;;;;;;49.28;28.58;;;18.50;57.70;;;;;;5014040;28;20054;-42
2022/03/24 10:46:48;;;;;;;45.05;27.25;;;18.50;55.90;;;;;;5012867;28;20148;-42
2022/03/24 10:49:17;;;;;;;50.92;27.60;;;18.50;55.20;;;;;;5013110;28;20470;-41
2022/03/24 10:51:44;;;;;;;46.50;27.30;;;18.60;55.20;;;;;;5013795;28;20045;-42
2022/03/24 10:54:18;;;;;;;43.97;27.15;;;18.70;55.90;;;;;;5012512;28;20064;-43
2022/03/24 10:56:46;;;;;;;39.72;26.83;;;18.80;55.20;;;;;;5013899;28;20061;-41
2022/03/24 10:59:14;;;;;;;53.50;25.17;;;18.90;54.50;;;;;;4995117;28;20077;-41
2022/03/24 11:01:42;;;;;;;42.03;27.38;;;18.90;53.60;;;;;;4994160;28;20045;-42
2022/03/24 11:04:09;;;;;;;56.80;28.42;;;19.00;53.90;;;;;;4995268;28;20052;-42
2022/03/24 11:06:36;;;;;;;45.85;27.40;;;19.10;53.70;;;;;;5013638;28;20128;-41
2022/03/24 11:09:03;;;;;;;45.20;25.88;;;19.20;52.90;;;;;;5013343;28;20081;-43
2022/03/24 11:11:30;;;;;;;46.22;24.75;;;19.30;52.50;;;;;;5013895;28;20077;-44
2022/03/24 11:13:57;;;;;;;44.08;25.20;;;19.30;53.00;;;;;;5013336;28;20486;-45
2022/03/24 11:16:26;;;;;;;38.78;24.90;;;19.40;52.80;;;;;;5012327;28;20538;-44
2022/03/24 11:18:53;;;;;;;44.38;25.45;;;19.50;53.20;;;;;;5012155;28;20050;-42
2022/03/24 11:21:25;;;;;;;53.17;27.00;;;19.60;52.90;;;;;;5013496;28;20120;-42
2022/03/24 11:23:54;;;;;;;49.72;26.65;;;19.80;52.40;;;;;;5012207;28;20128;-43
2022/03/24 11:26:21;;;;;;;45.10;24.83;;;19.90;52.90;;;;;;5013748;28;20311;-43
2022/03/24 11:28:50;;;;;;;44.13;24.27;;;20.00;52.90;;;;;;5012330;28;20061;-43
2022/03/24 11:31:17;;;;;;;44.63;25.17;;;20.10;51.40;;;;;;5012484;28;20042;-42
2022/03/24 11:33:48;;;;;;;42.60;25.38;;;20.10;50.20;;;;;;5012624;28;20053;-43
2022/03/24 11:36:15;;;;;;;;;;;20.10;49.30;;;;;;4994588;28;20049;-46
2022/03/24 11:38:42;;;;;;;50.80;26.63;;;20.00;49.40;;;;;;4992297;28;19918;-44
2022/03/24 11:41:13;;;;;;;39.58;23.23;;;19.90;50.00;;;;;;4993626;28;20046;-46
2022/03/24 11:43:42;;;;;;;39.53;23.95;;;20.00;50.30;;;;;;4992695;28;20058;-43
2022/03/24 11:46:11;;;;;;;38.00;22.90;;;20.10;49.10;;;;;;4992569;28;20050;-44
2022/03/24 11:48:38;;;;;;;39.38;22.38;;;20.20;49.60;;;;;;4992830;28;20453;-47
2022/03/24 11:51:07;;;;;;;40.58;23.50;;;20.30;49.60;;;;;;4992301;28;20049;-48
2022/03/24 11:53:39;;;;;;;39.58;23.30;;;20.40;50.90;;;;;;4992383;28;20078;-45
2022/03/24 11:56:18;;;;;;;41.63;23.77;;;20.50;49.30;;;;;;4992677;28;20434;-43
2022/03/24 11:59:19;;;;;;;35.75;21.63;;;20.60;48.40;;;;;;4993425;28;20050;-44
2022/03/24 12:01:46;;;;;;;39.50;22.73;;;20.70;50.40;;;;;;4992407;28;20061;-45
2022/03/24 12:04:14;;;;;;;33.08;19.88;;;20.70;48.80;;;;;;4993488;28;20108;-44
2022/03/24 12:06:53;;;;;;;35.10;19.40;;;20.80;49.10;;;;;;4993435;28;20046;-45
2022/03/24 12:09:22;;;;;;;33.72;20.60;;;20.90;48.10;;;;;;4993267;28;20043;-44
2022/03/24 12:11:50;;;;;;;39.00;21.08;;;20.90;47.90;;;;;;4992530;28;20046;-45
2022/03/24 12:14:19;;;;;;;33.22;19.77;;;20.90;47.30;;;;;;4993100;28;20045;-42
2022/03/24 12:16:47;;;;;;;40.00;20.58;;;20.90;47.60;;;;;;4992447;28;20047;-46
2022/03/24 12:19:36;;;;;;;35.75;19.63;;;20.90;49.50;;;;;;4991797;28;20046;-44
2022/03/24 12:22:29;;;;;;;34.05;18.08;;;21.00;50.00;;;;;;4993207;28;20047;-47
2022/03/24 12:25:24;;;;;;;34.10;18.42;;;21.20;48.40;;;;;;5007650;28;20429;-44
2022/03/24 12:28:08;;;;;;;29.27;17.63;;;21.20;48.30;;;;;;5011700;28;20054;-44
2022/03/24 12:31:10;;;;;;;37.47;20.55;;;21.20;47.90;;;;;;5011621;28;20133;-44
2022/03/24 12:33:46;;;;;;;35.03;18.17;;;21.10;45.30;;;;;;4982071;28;20105;-44
2022/03/24 12:36:14;;;;;;;31.42;17.42;;;20.90;46.40;;;;;;4993056;28;20043;-43